createdAt,value
2023-03-27T00:01:30.773Z,98774.30
2023-03-27T00:04:02.296Z,98772.77
2023-03-27T00:06:34.577Z,98769.66
2023-03-27T00:09:04.013Z,98770.11
2023-03-27T00:11:33.217Z,98775.05
2023-03-27T00:14:04.470Z,98777.35
2023-03-27T00:16:32.935Z,98775.56
2023-03-27T00:19:01.233Z,98776.37
2023-03-27T00:21:35.430Z,98772.13
2023-03-27T00:24:04.014Z,98767.80
2023-03-27T00:26:32.599Z,98766.36
2023-03-27T00:29:04.498Z,98764.90
2023-03-27T00:31:36.463Z,98771.52
2023-03-27T00:34:04.568Z,98771.63
2023-03-27T00:36:34.140Z,98775.73
2023-03-27T00:39:02.454Z,98770.42
2023-03-27T00:41:31.168Z,98769.33
2023-03-27T00:43:59.665Z,98769.27
2023-03-27T00:46:44.067Z,98766.52
2023-03-27T00:49:12.358Z,98768.29
2023-03-27T00:51:41.756Z,98767.67
2023-03-27T00:54:10.976Z,98770.23
2023-03-27T00:56:40.273Z,98775.71
2023-03-27T00:59:10.859Z,98772.27
2023-03-27T01:01:40.035Z,98767.84
2023-03-27T01:04:09.221Z,98772.11
2023-03-27T01:06:37.779Z,98774.63
2023-03-27T01:09:09.412Z,98780.83
2023-03-27T01:11:54.504Z,98780.53
2023-03-27T01:14:37.691Z,98775.84
2023-03-27T01:17:30.921Z,98776.39
2023-03-27T01:20:27.521Z,98776.02
2023-03-27T01:23:35.923Z,98780.73
2023-03-27T01:26:14.906Z,98779.86
2023-03-27T01:29:18.217Z,98779.48
2023-03-27T01:31:58.621Z,98782.02
2023-03-27T01:34:41.269Z,98783.07
2023-03-27T01:37:47.883Z,98780.21
2023-03-27T01:40:25.426Z,98780.44
2023-03-27T01:43:04.465Z,98780.40
2023-03-27T01:45:42.836Z,98782.77
2023-03-27T01:48:14.345Z,98778.35
2023-03-27T01:50:48.690Z,98775.20
2023-03-27T01:53:34.281Z,98775.00
2023-03-27T01:56:13.741Z,98779.36
2023-03-27T01:58:46.670Z,98789.64
2023-03-27T02:01:18.266Z,98790.29
2023-03-27T02:03:53.050Z,98786.00
2023-03-27T02:06:24.003Z,98779.80
2023-03-27T02:09:18.122Z,98773.81
2023-03-27T02:11:57.595Z,98769.03
2023-03-27T02:14:31.181Z,98775.42
2023-03-27T02:17:02.190Z,98782.34
2023-03-27T02:19:35.225Z,98786.52
2023-03-27T02:22:03.710Z,98789.42
2023-03-27T02:24:43.554Z,98789.52
2023-03-27T02:27:21.335Z,98791.98
2023-03-27T02:30:10.494Z,98791.70
2023-03-27T02:33:17.281Z,98792.05
2023-03-27T02:35:52.106Z,98794.85
2023-03-27T02:38:38.612Z,98798.27
2023-03-27T02:41:41.198Z,98800.65
2023-03-27T02:44:52.615Z,98803.80
2023-03-27T02:47:29.055Z,98800.77
2023-03-27T02:50:05.540Z,98806.20
2023-03-27T02:52:42.753Z,98805.73
2023-03-27T02:55:34.347Z,98810.58
2023-03-27T02:58:05.607Z,98814.59
2023-03-27T03:00:52.339Z,98821.24
2023-03-27T03:04:04.216Z,98829.55
2023-03-27T03:06:45.582Z,98834.48
2023-03-27T03:09:15.101Z,98833.88
2023-03-27T03:11:48.993Z,98838.39
2023-03-27T03:14:21.406Z,98837.58
2023-03-27T03:16:49.571Z,98841.48
2023-03-27T03:19:25.293Z,98843.16
2023-03-27T03:21:54.413Z,98842.28
2023-03-27T03:24:22.661Z,98846.29
2023-03-27T03:26:54.400Z,98850.08
2023-03-27T03:29:22.490Z,98851.77
2023-03-27T03:32:01.526Z,98857.48
2023-03-27T03:34:30.739Z,98852.19
2023-03-27T03:36:59.802Z,98854.71
2023-03-27T03:39:33.240Z,98859.20
2023-03-27T03:42:02.792Z,98856.01
2023-03-27T03:44:31.693Z,98860.86
2023-03-27T03:47:01.648Z,98861.95
2023-03-27T03:49:30.027Z,98863.77
2023-03-27T03:52:03.545Z,98864.80
2023-03-27T03:54:33.861Z,98867.23
2023-03-27T03:57:03.309Z,98867.52
2023-03-27T03:59:32.714Z,98870.85
2023-03-27T04:02:29.776Z,98873.52
2023-03-27T04:05:12.653Z,98873.46
2023-03-27T04:07:42.502Z,98873.10
2023-03-27T04:10:41.689Z,98877.64
2023-03-27T04:13:21.278Z,98875.91
2023-03-27T04:16:15.760Z,98875.52
2023-03-27T04:18:55.546Z,98881.34
2023-03-27T04:21:26.959Z,98884.94
2023-03-27T04:24:02.370Z,98886.73
2023-03-27T04:26:43.513Z,98888.46
2023-03-27T04:29:32.074Z,98886.59
2023-03-27T04:32:00.178Z,98883.11
2023-03-27T04:34:49.303Z,98881.22
2023-03-27T04:37:29.056Z,98882.82
2023-03-27T04:40:05.714Z,98879.02
2023-03-27T04:42:42.644Z,98874.73
2023-03-27T04:45:13.139Z,98876.31
2023-03-27T04:47:46.581Z,98874.59
2023-03-27T04:50:15.487Z,98872.84
2023-03-27T04:52:44.065Z,98867.98
2023-03-27T04:55:12.543Z,98863.33
2023-03-27T04:57:46.329Z,98865.95
2023-03-27T05:00:19.767Z,98865.10
2023-03-27T05:02:48.701Z,98861.77
2023-03-27T05:05:22.440Z,98860.42
2023-03-27T05:08:30.080Z,98868.33
2023-03-27T05:10:58.751Z,98870.17
2023-03-27T05:13:30.677Z,98877.44
2023-03-27T05:16:01.909Z,98886.55
2023-03-27T05:18:32.039Z,98883.99
2023-03-27T05:21:06.036Z,98882.39
2023-03-27T05:23:35.004Z,98881.92
2023-03-27T05:26:03.597Z,98881.93
2023-03-27T05:28:48.940Z,98878.70
2023-03-27T05:31:17.373Z,98877.35
2023-03-27T05:33:54.973Z,98874.60
2023-03-27T05:36:23.306Z,98879.71
2023-03-27T05:38:53.276Z,98885.75
2023-03-27T05:41:43.370Z,98884.83
2023-03-27T05:44:12.335Z,98887.56
2023-03-27T05:46:43.027Z,98891.67
2023-03-27T05:49:20.340Z,98895.52
2023-03-27T05:51:52.730Z,98895.85
2023-03-27T05:54:22.547Z,98898.21
2023-03-27T05:57:10.925Z,98892.35
2023-03-27T05:59:43.771Z,98893.06
2023-03-27T06:02:21.325Z,98891.23
2023-03-27T06:05:04.591Z,98893.52
2023-03-27T06:07:42.988Z,98892.52
2023-03-27T06:10:13.852Z,98889.60
2023-03-27T06:13:08.906Z,98888.74
2023-03-27T06:15:46.909Z,98881.44
2023-03-27T06:18:38.477Z,98879.94
2023-03-27T06:21:08.987Z,98883.09
2023-03-27T06:23:37.896Z,98886.51
2023-03-27T06:26:11.324Z,98890.99
2023-03-27T06:28:42.554Z,98888.02
2023-03-27T06:31:12.099Z,98890.35
2023-03-27T06:33:48.994Z,98894.06
2023-03-27T06:36:38.045Z,98892.98
2023-03-27T06:39:08.417Z,98888.42
2023-03-27T06:41:36.817Z,98895.09
2023-03-27T06:44:07.987Z,98894.81
2023-03-27T06:46:48.730Z,98893.10
2023-03-27T06:49:36.142Z,98889.73
2023-03-27T06:52:12.121Z,98893.68
2023-03-27T06:54:40.875Z,98891.55
2023-03-27T06:57:08.940Z,98893.90
2023-03-27T06:59:58.836Z,98891.95
2023-03-27T07:02:45.007Z,98893.68
2023-03-27T07:05:40.745Z,98891.75
2023-03-27T07:10:56.278Z,98900.59
2023-03-27T07:13:35.886Z,98899.80
2023-03-27T07:16:07.054Z,98904.50
2023-03-27T07:18:36.257Z,98902.41
2023-03-27T07:21:06.057Z,98906.48
2023-03-27T07:23:34.282Z,98906.23
2023-03-27T07:26:05.090Z,98909.70
2023-03-27T07:28:52.138Z,98905.19
2023-03-27T07:31:36.500Z,98907.39
2023-03-27T07:34:09.450Z,98904.20
2023-03-27T07:37:09.737Z,98900.05
2023-03-27T07:39:41.955Z,98897.58
2023-03-27T07:42:10.314Z,98899.94
2023-03-27T07:44:53.404Z,98898.49
2023-03-27T07:47:21.428Z,98906.45
2023-03-27T07:49:49.497Z,98898.23
2023-03-27T07:52:18.323Z,98897.21
2023-03-27T07:54:52.200Z,98903.70
2023-03-27T07:57:23.377Z,98898.80
2023-03-27T07:59:57.468Z,98896.99
2023-03-27T08:02:45.766Z,98896.65
2023-03-27T08:05:14.521Z,98893.14
2023-03-27T08:07:48.243Z,98893.05
2023-03-27T08:10:27.856Z,98890.13
2023-03-27T08:13:01.624Z,98889.63
2023-03-27T08:15:29.867Z,98891.35
2023-03-27T08:17:59.942Z,98885.52
2023-03-27T08:20:30.683Z,98886.25
2023-03-27T08:23:00.868Z,98885.52
2023-03-27T08:25:33.360Z,98879.70
2023-03-27T08:28:03.000Z,98885.98
2023-03-27T08:30:31.796Z,98888.67
2023-03-27T08:33:00.589Z,98887.05
2023-03-27T08:35:28.931Z,98887.08
2023-03-27T08:37:57.578Z,98891.09
2023-03-27T08:40:58.902Z,98889.83
2023-03-27T08:43:43.036Z,98892.10
2023-03-27T08:46:24.222Z,98888.16
2023-03-27T08:48:57.810Z,98887.30
2023-03-27T08:51:47.784Z,98896.44
2023-03-27T08:54:19.115Z,98897.36
2023-03-27T08:56:49.033Z,98895.38
2023-03-27T08:59:19.936Z,98894.89
2023-03-27T09:02:07.181Z,98892.27
2023-03-27T09:04:38.794Z,98882.47
2023-03-27T09:07:14.031Z,98882.62
2023-03-27T09:10:10.197Z,98881.19
2023-03-27T09:13:07.811Z,98879.94
2023-03-27T09:15:58.508Z,98878.58
2023-03-27T09:18:28.074Z,98878.77
2023-03-27T09:20:59.201Z,98880.65
2023-03-27T09:23:31.888Z,98878.02
2023-03-27T09:26:23.768Z,98880.63
2023-03-27T09:29:05.663Z,98877.79
2023-03-27T09:31:47.041Z,98878.87
2023-03-27T09:34:17.976Z,98881.17
2023-03-27T09:36:49.769Z,98875.42
2023-03-27T09:39:22.876Z,98878.64
2023-03-27T09:41:58.668Z,98876.02
2023-03-27T09:44:37.006Z,98875.98
2023-03-27T09:47:09.557Z,98876.95
2023-03-27T09:49:38.721Z,98876.48
2023-03-27T09:52:08.808Z,98878.14
2023-03-27T09:54:52.890Z,98879.38
2023-03-27T09:57:22.652Z,98879.83
2023-03-27T10:00:20.679Z,98877.02
2023-03-27T10:03:08.127Z,98866.24
2023-03-27T10:05:38.958Z,98864.38
2023-03-27T10:08:31.444Z,98856.88
2023-03-27T10:11:08.839Z,98852.69
2023-03-27T10:13:57.619Z,98861.38
2023-03-27T10:16:28.010Z,98862.23
2023-03-27T10:19:06.711Z,98859.94
2023-03-27T10:21:42.766Z,98858.92
2023-03-27T10:24:31.765Z,98861.19
2023-03-27T10:27:24.921Z,98862.20
2023-03-27T10:30:28.208Z,98860.40
2023-03-27T10:33:02.476Z,98859.77
2023-03-27T10:35:51.126Z,98852.39
2023-03-27T10:38:25.265Z,98857.88
2023-03-27T10:41:28.760Z,98859.27
2023-03-27T10:43:58.824Z,98860.91
2023-03-27T10:46:28.777Z,98855.83
2023-03-27T10:49:12.678Z,98855.46
2023-03-27T10:51:47.562Z,98854.82
2023-03-27T10:54:38.023Z,98859.11
2023-03-27T10:57:10.900Z,98859.15
2023-03-27T10:59:50.779Z,98858.39
2023-03-27T11:02:43.805Z,98854.11
2023-03-27T11:05:18.890Z,98855.56
2023-03-27T11:07:57.267Z,98857.09
2023-03-27T11:10:42.384Z,98851.62
2023-03-27T11:13:15.436Z,98847.03
2023-03-27T11:15:59.640Z,98845.67
2023-03-27T11:19:03.342Z,98845.17
2023-03-27T11:21:39.186Z,98838.14
2023-03-27T11:24:15.384Z,98844.48
2023-03-27T11:27:11.021Z,98839.93
2023-03-27T11:29:47.558Z,98838.80
2023-03-27T11:32:23.459Z,98832.61
2023-03-27T11:35:04.247Z,98830.83
2023-03-27T11:37:47.204Z,98827.17
2023-03-27T11:40:20.202Z,98829.41
2023-03-27T11:42:49.033Z,98827.61
2023-03-27T11:45:19.211Z,98822.91
2023-03-27T11:48:09.367Z,98824.39
2023-03-27T11:50:53.292Z,98825.06
2023-03-27T11:53:39.905Z,98819.61
2023-03-27T11:56:32.807Z,98817.33
2023-03-27T11:59:29.611Z,98816.39
2023-03-27T12:02:34.510Z,98814.95
2023-03-27T12:05:17.238Z,98813.14
2023-03-27T12:08:07.264Z,98812.08
2023-03-27T12:10:38.769Z,98809.36
2023-03-27T12:13:40.664Z,98808.83
2023-03-27T12:16:23.199Z,98807.73
2023-03-27T12:19:28.945Z,98801.07
2023-03-27T12:22:52.864Z,98798.93
2023-03-27T12:25:45.409Z,98803.01
2023-03-27T12:28:35.093Z,98805.85
2023-03-27T12:31:49.556Z,98805.06
2023-03-27T12:34:42.203Z,98803.60
2023-03-27T12:37:12.300Z,98799.55
2023-03-27T12:40:29.103Z,98796.61
2023-03-27T12:43:17.946Z,98797.61
2023-03-27T12:46:16.138Z,98793.00
2023-03-27T12:48:52.818Z,98796.99
2023-03-27T12:51:35.740Z,98792.46
2023-03-27T12:54:28.868Z,98795.79
2023-03-27T12:56:58.751Z,98796.98
2023-03-27T12:59:29.512Z,98791.06
2023-03-27T13:02:04.063Z,98788.77
2023-03-27T13:05:10.719Z,98784.85
2023-03-27T13:07:53.493Z,98780.59
2023-03-27T13:11:04.498Z,98780.74
2023-03-27T13:14:02.837Z,98779.65
2023-03-27T13:16:41.126Z,98776.89
2023-03-27T13:19:37.411Z,98776.76
2023-03-27T13:22:43.628Z,98776.30
2023-03-27T13:25:31.798Z,98776.79
2023-03-27T13:28:35.595Z,98771.55
2023-03-27T13:31:47.169Z,98768.59
2023-03-27T13:34:27.650Z,98769.73
2023-03-27T13:37:11.363Z,98764.45
2023-03-27T13:40:01.620Z,98766.95
2023-03-27T13:42:39.112Z,98766.29
2023-03-27T13:45:20.577Z,98762.52
2023-03-27T13:48:26.551Z,98759.57
2023-03-27T13:51:17.998Z,98758.06
2023-03-27T13:54:08.529Z,98755.24
2023-03-27T13:56:56.092Z,98748.79
2023-03-27T14:00:37.644Z,98751.48
2023-03-27T14:03:21.648Z,98747.96
2023-03-27T14:06:05.196Z,98745.06
2023-03-27T14:09:02.175Z,98748.67
2023-03-27T14:12:19.105Z,98746.34
2023-03-27T14:15:19.198Z,98744.73
2023-03-27T14:18:00.511Z,98743.61
2023-03-27T14:20:40.595Z,98746.46
2023-03-27T14:23:26.532Z,98745.66
2023-03-27T14:26:20.553Z,98734.36
2023-03-27T14:28:51.718Z,98733.21
2023-03-27T14:31:28.991Z,98734.27
2023-03-27T14:34:25.009Z,98735.36
2023-03-27T14:37:39.041Z,98732.87
2023-03-27T14:40:33.478Z,98727.70
2023-03-27T14:43:03.634Z,98729.96
2023-03-27T14:45:35.759Z,98726.45
2023-03-27T14:48:10.039Z,98723.80
2023-03-27T14:50:47.828Z,98724.20
2023-03-27T14:53:18.541Z,98729.73
2023-03-27T14:56:37.068Z,98726.31
2023-03-27T14:59:28.227Z,98721.03
2023-03-27T15:02:00.054Z,98722.63
2023-03-27T15:04:30.103Z,98718.19
2023-03-27T15:07:18.869Z,98719.52
2023-03-27T15:10:07.665Z,98719.09
2023-03-27T15:12:58.496Z,98720.48
2023-03-27T15:15:43.009Z,98720.54
2023-03-27T15:18:33.102Z,98713.86
2023-03-27T15:21:04.385Z,98713.95
2023-03-27T15:23:45.014Z,98712.89
2023-03-27T15:26:27.325Z,98711.70
2023-03-27T15:29:01.781Z,98710.64
2023-03-27T15:31:30.946Z,98710.98
2023-03-27T15:34:06.187Z,98710.10
2023-03-27T15:36:35.176Z,98706.57
2023-03-27T15:39:05.136Z,98706.45
2023-03-27T15:41:33.807Z,98707.50
2023-03-27T15:44:13.141Z,98709.27
2023-03-27T15:47:01.155Z,98707.29
2023-03-27T15:49:37.006Z,98702.91
2023-03-27T15:52:30.243Z,98703.22
2023-03-27T15:54:59.387Z,98700.60
2023-03-27T15:57:29.606Z,98702.77
2023-03-27T16:00:02.871Z,98701.02
2023-03-27T16:02:47.197Z,98697.83
2023-03-27T16:05:16.319Z,98698.01
2023-03-27T16:07:47.238Z,98693.62
2023-03-27T16:10:29.408Z,98693.77
2023-03-27T16:13:02.755Z,98691.77
2023-03-27T16:15:34.788Z,98691.84
2023-03-27T16:18:13.575Z,98693.24
2023-03-27T16:20:42.150Z,98689.94
2023-03-27T16:23:10.301Z,98691.23
2023-03-27T16:25:38.266Z,98690.92
2023-03-27T16:28:07.493Z,98690.61
2023-03-27T16:30:38.914Z,98690.23
2023-03-27T16:33:15.993Z,98691.20
2023-03-27T16:35:45.458Z,98696.39
2023-03-27T16:38:14.117Z,98694.83
2023-03-27T16:40:43.529Z,98696.45
2023-03-27T16:43:11.910Z,98697.58
2023-03-27T16:45:41.149Z,98699.18
2023-03-27T16:48:10.277Z,98698.29
2023-03-27T16:50:38.389Z,98704.31
2023-03-27T16:53:06.978Z,98701.67
2023-03-27T16:55:34.893Z,98700.02
2023-03-27T16:58:03.648Z,98700.52
2023-03-27T17:00:31.913Z,98700.00
2023-03-27T17:03:19.970Z,98699.88
2023-03-27T17:05:48.277Z,98703.81
2023-03-27T17:08:18.540Z,98705.05
2023-03-27T17:10:47.824Z,98705.09
2023-03-27T17:13:18.045Z,98706.48
2023-03-27T17:15:51.299Z,98711.52
2023-03-27T17:18:20.665Z,98711.58
2023-03-27T17:20:48.804Z,98710.92
2023-03-27T17:25:59.134Z,98720.14
2023-03-27T17:28:28.247Z,98713.42
2023-03-27T17:31:03.994Z,98714.72
2023-03-27T17:33:32.802Z,98712.27
2023-03-27T17:36:00.236Z,98714.50
2023-03-27T17:38:27.860Z,98710.23
2023-03-27T17:40:54.684Z,98708.60
2023-03-27T17:43:21.269Z,98710.76
2023-03-27T17:45:48.952Z,98706.79
2023-03-27T17:48:16.394Z,98713.33
2023-03-27T17:50:49.831Z,98711.39
2023-03-27T17:53:27.043Z,98708.02
2023-03-27T17:55:53.522Z,98702.69
2023-03-27T17:58:21.701Z,98706.02
2023-03-27T18:00:48.577Z,98706.55
2023-03-27T18:03:16.091Z,98700.48
2023-03-27T18:05:43.137Z,98700.31
2023-03-27T18:08:11.743Z,98698.69
2023-03-27T18:10:44.386Z,98701.64
2023-03-27T18:13:11.949Z,98703.63
2023-03-27T18:15:40.063Z,98702.77
2023-03-27T18:18:07.302Z,98709.45
2023-03-27T18:20:34.021Z,98714.70
2023-03-27T18:23:00.839Z,98716.62
2023-03-27T18:25:27.685Z,98720.20
2023-03-27T18:27:54.185Z,98716.36
2023-03-27T18:30:23.249Z,98717.73
2023-03-27T18:32:50.054Z,98713.52
2023-03-27T18:35:18.867Z,98707.27
2023-03-27T18:37:46.198Z,98711.38
2023-03-27T18:40:17.733Z,98710.54
2023-03-27T18:43:04.184Z,98716.78
2023-03-27T18:45:31.703Z,98716.91
2023-03-27T18:47:58.727Z,98715.57
2023-03-27T18:50:33.030Z,98712.99
2023-03-27T18:53:00.988Z,98710.67
2023-03-27T18:55:27.729Z,98700.00
2023-03-27T18:57:54.463Z,98705.58
2023-03-27T19:00:21.528Z,98705.52
2023-03-27T19:02:55.904Z,98702.77
2023-03-27T19:05:22.492Z,98695.05
2023-03-27T19:07:49.240Z,98698.01
2023-03-27T19:10:17.523Z,98708.40
2023-03-27T19:12:49.082Z,98710.45
2023-03-27T19:15:34.640Z,98710.46
2023-03-27T19:18:27.777Z,98713.18
2023-03-27T19:21:18.282Z,98711.95
2023-03-27T19:24:02.149Z,98708.09
2023-03-27T19:26:36.662Z,98693.24
2023-03-27T19:29:04.311Z,98683.81
2023-03-27T19:31:30.918Z,98672.73
2023-03-27T19:33:58.234Z,98662.59
2023-03-27T19:36:26.521Z,98657.97
2023-03-27T19:38:53.454Z,98663.44
2023-03-27T19:41:23.493Z,98663.48
2023-03-27T19:43:51.149Z,98664.33
2023-03-27T19:46:17.938Z,98663.69
2023-03-27T19:48:46.773Z,98666.44
2023-03-27T19:51:22.267Z,98661.13
2023-03-27T19:53:54.790Z,98659.67
2023-03-27T19:56:24.627Z,98661.06
2023-03-27T19:58:51.728Z,98657.47
2023-03-27T20:01:21.555Z,98656.23
2023-03-27T20:03:48.632Z,98657.63
2023-03-27T20:06:18.975Z,98658.56
2023-03-27T20:08:45.656Z,98653.80
2023-03-27T20:11:14.132Z,98652.17
2023-03-27T20:13:53.151Z,98646.38
2023-03-27T20:16:25.491Z,98638.89
2023-03-27T20:19:02.599Z,98636.81
2023-03-27T20:21:33.265Z,98631.92
2023-03-27T20:24:00.664Z,98633.02
2023-03-27T20:26:38.168Z,98627.29
2023-03-27T20:29:12.366Z,98632.42
2023-03-27T20:31:40.168Z,98623.77
2023-03-27T20:34:06.912Z,98617.58
2023-03-27T20:36:34.236Z,98615.94
2023-03-27T20:39:06.466Z,98610.99
2023-03-27T20:41:38.073Z,98611.36
2023-03-27T20:44:14.437Z,98603.79
2023-03-27T20:46:46.569Z,98605.64
2023-03-27T20:49:33.520Z,98604.26
2023-03-27T20:52:09.731Z,98603.39
2023-03-27T20:54:36.288Z,98604.45
2023-03-27T20:57:03.564Z,98607.38
2023-03-27T20:59:30.808Z,98607.66
2023-03-27T21:01:59.868Z,98610.63
2023-03-27T21:04:28.995Z,98631.11
2023-03-27T21:06:55.959Z,98629.52
2023-03-27T21:09:25.423Z,98619.98
2023-03-27T21:11:54.536Z,98616.92
2023-03-27T21:14:21.395Z,98611.02
2023-03-27T21:16:49.044Z,98605.77
2023-03-27T21:19:16.434Z,98599.36
2023-03-27T21:21:43.184Z,98591.53
2023-03-27T21:24:09.953Z,98593.77
2023-03-27T21:26:37.509Z,98592.35
2023-03-27T21:29:10.536Z,98587.36
2023-03-27T21:31:39.344Z,98584.79
2023-03-27T21:34:06.229Z,98574.29
2023-03-27T21:36:34.960Z,98569.45
2023-03-27T21:39:02.137Z,98567.58
2023-03-27T21:41:28.973Z,98566.39
2023-03-27T21:43:55.648Z,98565.46
2023-03-27T21:46:22.494Z,98566.10
2023-03-27T21:48:49.473Z,98566.45
2023-03-27T21:51:16.175Z,98563.32
2023-03-27T21:53:42.767Z,98555.66
2023-03-27T21:56:10.274Z,98551.69
2023-03-27T21:58:37.295Z,98554.84
2023-03-27T22:01:06.418Z,98555.92
2023-03-27T22:03:34.307Z,98561.73
2023-03-27T22:06:11.763Z,98558.54
2023-03-27T22:08:40.196Z,98562.44
2023-03-27T22:11:07.175Z,98560.59
2023-03-27T22:13:37.127Z,98556.42
2023-03-27T22:16:13.085Z,98557.60
2023-03-27T22:18:41.974Z,98557.21
2023-03-27T22:21:21.499Z,98553.44
2023-03-27T22:23:52.943Z,98556.54
2023-03-27T22:26:20.641Z,98559.88
2023-03-27T22:28:49.199Z,98559.79
2023-03-27T22:31:16.938Z,98553.84
2023-03-27T22:33:46.368Z,98557.30
2023-03-27T22:36:15.261Z,98551.33
2023-03-27T22:38:42.629Z,98554.27
2023-03-27T22:41:11.193Z,98560.90
2023-03-27T22:43:39.784Z,98562.45
2023-03-27T22:46:13.996Z,98563.76
2023-03-27T22:48:43.100Z,98561.61
2023-03-27T22:51:10.412Z,98555.96
2023-03-27T22:53:37.397Z,98561.27
2023-03-27T22:56:05.171Z,98558.89
2023-03-27T22:58:32.763Z,98550.84
2023-03-27T23:00:59.875Z,98546.13
2023-03-27T23:03:27.247Z,98543.59
2023-03-27T23:05:54.774Z,98539.67
2023-03-27T23:08:23.882Z,98523.79
2023-03-27T23:11:01.257Z,98513.86
2023-03-27T23:13:33.532Z,98519.83
2023-03-27T23:16:02.740Z,98526.50
2023-03-27T23:18:30.127Z,98530.30
2023-03-27T23:21:00.281Z,98530.87
2023-03-27T23:23:28.092Z,98534.14
2023-03-27T23:25:54.956Z,98526.30
2023-03-27T23:28:23.570Z,98526.45
2023-03-27T23:30:54.157Z,98526.48
2023-03-27T23:33:36.697Z,98524.52
2023-03-27T23:36:23.362Z,98519.29
2023-03-27T23:38:52.616Z,98519.55
2023-03-27T23:41:19.929Z,98518.48
2023-03-27T23:43:46.632Z,98514.48
2023-03-27T23:46:13.730Z,98505.98
2023-03-27T23:48:41.849Z,98501.41
2023-03-27T23:51:11.879Z,98497.26
2023-03-27T23:53:42.104Z,98501.31
2023-03-27T23:56:09.360Z,98496.00
2023-03-27T23:58:36.512Z,98493.99
